sensor_id;sensor_type;location;lat;lon;timestamp;temperature;humidity
5675;DHT22;2860;54.284;10.158;2023-02-23T00:01:14;6.50;99.90
5675;DHT22;2860;54.284;10.158;2023-02-23T00:03:40;6.50;99.90
5675;DHT22;2860;54.284;10.158;2023-02-23T00:06:07;6.50;99.90
5675;DHT22;2860;54.284;10.158;2023-02-23T00:08:33;6.50;99.90
5675;DHT22;2860;54.284;10.158;2023-02-23T00:11:05;6.50;99.90
5675;DHT22;2860;54.284;10.158;2023-02-23T00:13:35;6.50;99.90
5675;DHT22;2860;54.284;10.158;2023-02-23T00:16:08;6.50;99.90
5675;DHT22;2860;54.284;10.158;2023-02-23T00:18:36;6.60;99.90
5675;DHT22;2860;54.284;10.158;2023-02-23T00:21:11;6.60;99.90
5675;DHT22;2860;54.284;10.158;2023-02-23T00:23:42;6.60;99.90
5675;DHT22;2860;54.284;10.158;2023-02-23T00:26:08;6.50;99.90
5675;DHT22;2860;54.284;10.158;2023-02-23T00:28:33;6.50;99.90
5675;DHT22;2860;54.284;10.158;2023-02-23T00:31:01;6.50;99.90
5675;DHT22;2860;54.284;10.158;2023-02-23T00:33:28;6.50;99.90
5675;DHT22;2860;54.284;10.158;2023-02-23T00:36:03;6.50;99.90
5675;DHT22;2860;54.284;10.158;2023-02-23T00:38:29;6.60;99.90
5675;DHT22;2860;54.284;10.158;2023-02-23T00:40:59;6.60;99.90
5675;DHT22;2860;54.284;10.158;2023-02-23T00:43:24;6.60;99.90
5675;DHT22;2860;54.284;10.158;2023-02-23T00:45:54;6.70;99.90
5675;DHT22;2860;54.284;10.158;2023-02-23T00:48:19;6.70;99.90
5675;DHT22;2860;54.284;10.158;2023-02-23T00:50:45;6.70;99.90
5675;DHT22;2860;54.284;10.158;2023-02-23T00:53:11;6.70;99.90
5675;DHT22;2860;54.284;10.158;2023-02-23T00:55:39;6.70;99.90
5675;DHT22;2860;54.284;10.158;2023-02-23T00:58:05;6.70;99.90
5675;DHT22;2860;54.284;10.158;2023-02-23T01:00:34;6.70;99.90
5675;DHT22;2860;54.284;10.158;2023-02-23T01:03:06;6.70;99.90
5675;DHT22;2860;54.284;10.158;2023-02-23T01:05:34;6.70;99.90
5675;DHT22;2860;54.284;10.158;2023-02-23T01:07:59;6.80;99.90
5675;DHT22;2860;54.284;10.158;2023-02-23T01:10:25;6.80;99.90
5675;DHT22;2860;54.284;10.158;2023-02-23T01:12:51;6.80;99.90
5675;DHT22;2860;54.284;10.158;2023-02-23T01:15:18;6.80;99.90
5675;DHT22;2860;54.284;10.158;2023-02-23T01:17:44;6.80;99.90
5675;DHT22;2860;54.284;10.158;2023-02-23T01:20:11;6.80;99.90
5675;DHT22;2860;54.284;10.158;2023-02-23T01:22:52;6.80;99.90
5675;DHT22;2860;54.284;10.158;2023-02-23T01:25:18;6.80;99.90
5675;DHT22;2860;54.284;10.158;2023-02-23T01:27:44;6.80;99.90
5675;DHT22;2860;54.284;10.158;2023-02-23T01:30:13;6.80;99.90
5675;DHT22;2860;54.284;10.158;2023-02-23T01:32:40;6.80;99.90
5675;DHT22;2860;54.284;10.158;2023-02-23T01:35:10;6.80;99.90
5675;DHT22;2860;54.284;10.158;2023-02-23T01:37:38;6.80;99.90
5675;DHT22;2860;54.284;10.158;2023-02-23T01:40:16;6.80;99.90
5675;DHT22;2860;54.284;10.158;2023-02-23T01:42:53;6.80;99.90
5675;DHT22;2860;54.284;10.158;2023-02-23T01:47:53;6.80;99.90
5675;DHT22;2860;54.284;10.158;2023-02-23T01:50:20;6.80;99.90
5675;DHT22;2860;54.284;10.158;2023-02-23T01:52:49;6.70;99.90
5675;DHT22;2860;54.284;10.158;2023-02-23T01:55:16;6.70;99.90
5675;DHT22;2860;54.284;10.158;2023-02-23T01:57:51;6.70;99.90
5675;DHT22;2860;54.284;10.158;2023-02-23T02:00:18;6.70;99.90
5675;DHT22;2860;54.284;10.158;2023-02-23T02:02:45;6.70;99.90
5675;DHT22;2860;54.284;10.158;2023-02-23T02:05:14;6.70;99.90
5675;DHT22;2860;54.284;10.158;2023-02-23T02:07:42;6.70;99.90
5675;DHT22;2860;54.284;10.158;2023-02-23T02:10:10;6.70;99.90
5675;DHT22;2860;54.284;10.158;2023-02-23T02:12:43;6.70;99.90
5675;DHT22;2860;54.284;10.158;2023-02-23T02:15:10;6.70;99.90
5675;DHT22;2860;54.284;10.158;2023-02-23T02:20:39;6.70;99.90
5675;DHT22;2860;54.284;10.158;2023-02-23T02:23:36;6.70;99.90
5675;DHT22;2860;54.284;10.158;2023-02-23T02:26:38;6.70;99.90
5675;DHT22;2860;54.284;10.158;2023-02-23T02:31:50;6.70;99.90
5675;DHT22;2860;54.284;10.158;2023-02-23T02:43:00;6.70;99.90
5675;DHT22;2860;54.284;10.158;2023-02-23T02:48:35;6.70;99.90
5675;DHT22;2860;54.284;10.158;2023-02-23T02:56:21;6.70;99.90
5675;DHT22;2860;54.284;10.158;2023-02-23T02:58:48;6.70;99.90
5675;DHT22;2860;54.284;10.158;2023-02-23T03:01:16;6.70;99.90
5675;DHT22;2860;54.284;10.158;2023-02-23T03:04:20;6.70;99.90
5675;DHT22;2860;54.284;10.158;2023-02-23T03:07:14;6.70;99.90
5675;DHT22;2860;54.284;10.158;2023-02-23T03:10:10;6.70;99.90
5675;DHT22;2860;54.284;10.158;2023-02-23T03:13:57;6.70;99.90
5675;DHT22;2860;54.284;10.158;2023-02-23T03:16:45;6.70;99.90
5675;DHT22;2860;54.284;10.158;2023-02-23T03:19:39;6.70;99.90
5675;DHT22;2860;54.284;10.158;2023-02-23T03:22:33;6.70;99.90
5675;DHT22;2860;54.284;10.158;2023-02-23T03:25:34;6.70;99.90
5675;DHT22;2860;54.284;10.158;2023-02-23T03:28:30;6.80;99.90
5675;DHT22;2860;54.284;10.158;2023-02-23T03:34:27;6.80;99.90
5675;DHT22;2860;54.284;10.158;2023-02-23T03:37:24;6.80;99.90
5675;DHT22;2860;54.284;10.158;2023-02-23T03:40:19;6.80;99.90
5675;DHT22;2860;54.284;10.158;2023-02-23T03:43:08;6.80;99.90
5675;DHT22;2860;54.284;10.158;2023-02-23T03:45:55;6.80;99.90
5675;DHT22;2860;54.284;10.158;2023-02-23T03:48:42;6.80;99.90
5675;DHT22;2860;54.284;10.158;2023-02-23T03:51:31;6.80;99.90
5675;DHT22;2860;54.284;10.158;2023-02-23T03:54:21;6.80;99.90
5675;DHT22;2860;54.284;10.158;2023-02-23T03:57:09;6.80;99.90
5675;DHT22;2860;54.284;10.158;2023-02-23T03:59:59;6.90;99.90
5675;DHT22;2860;54.284;10.158;2023-02-23T04:02:48;6.90;99.90
5675;DHT22;2860;54.284;10.158;2023-02-23T04:05:35;6.90;99.90
5675;DHT22;2860;54.284;10.158;2023-02-23T04:08:22;6.90;99.90
5675;DHT22;2860;54.284;10.158;2023-02-23T04:11:11;6.90;99.90
5675;DHT22;2860;54.284;10.158;2023-02-23T04:14:00;6.90;99.90
5675;DHT22;2860;54.284;10.158;2023-02-23T04:16:29;6.90;99.90
5675;DHT22;2860;54.284;10.158;2023-02-23T04:18:56;6.90;99.90
5675;DHT22;2860;54.284;10.158;2023-02-23T04:21:22;6.90;99.90
5675;DHT22;2860;54.284;10.158;2023-02-23T04:23:48;6.90;99.90
5675;DHT22;2860;54.284;10.158;2023-02-23T04:26:13;6.90;99.90
5675;DHT22;2860;54.284;10.158;2023-02-23T04:28:39;6.90;99.90
5675;DHT22;2860;54.284;10.158;2023-02-23T04:31:04;6.90;99.90
5675;DHT22;2860;54.284;10.158;2023-02-23T04:33:30;6.90;99.90
5675;DHT22;2860;54.284;10.158;2023-02-23T04:35:55;6.90;99.90
5675;DHT22;2860;54.284;10.158;2023-02-23T04:38:22;6.90;99.90
5675;DHT22;2860;54.284;10.158;2023-02-23T04:40:47;6.90;99.90
5675;DHT22;2860;54.284;10.158;2023-02-23T04:43:13;7.00;99.90
5675;DHT22;2860;54.284;10.158;2023-02-23T04:45:39;7.00;99.90
5675;DHT22;2860;54.284;10.158;2023-02-23T04:48:05;7.00;99.90
5675;DHT22;2860;54.284;10.158;2023-02-23T04:50:31;7.00;99.90
5675;DHT22;2860;54.284;10.158;2023-02-23T04:52:56;7.00;99.90
5675;DHT22;2860;54.284;10.158;2023-02-23T04:55:23;7.00;99.90
5675;DHT22;2860;54.284;10.158;2023-02-23T04:57:50;7.00;99.90
5675;DHT22;2860;54.284;10.158;2023-02-23T05:00:17;7.00;99.90
5675;DHT22;2860;54.284;10.158;2023-02-23T05:02:43;7.00;99.90
5675;DHT22;2860;54.284;10.158;2023-02-23T05:05:15;7.00;99.90
5675;DHT22;2860;54.284;10.158;2023-02-23T05:07:40;7.00;99.90
5675;DHT22;2860;54.284;10.158;2023-02-23T05:10:06;7.00;99.90
5675;DHT22;2860;54.284;10.158;2023-02-23T05:12:32;7.00;99.90
5675;DHT22;2860;54.284;10.158;2023-02-23T05:14:57;7.00;99.90
5675;DHT22;2860;54.284;10.158;2023-02-23T05:17:23;7.00;99.90
5675;DHT22;2860;54.284;10.158;2023-02-23T05:19:49;7.00;99.90
5675;DHT22;2860;54.284;10.158;2023-02-23T05:22:14;7.10;99.90
5675;DHT22;2860;54.284;10.158;2023-02-23T05:24:40;7.10;99.90
5675;DHT22;2860;54.284;10.158;2023-02-23T05:27:07;7.10;99.90
5675;DHT22;2860;54.284;10.158;2023-02-23T05:29:33;7.10;99.90
5675;DHT22;2860;54.284;10.158;2023-02-23T05:31:58;7.10;99.90
5675;DHT22;2860;54.284;10.158;2023-02-23T05:34:24;7.10;99.90
5675;DHT22;2860;54.284;10.158;2023-02-23T05:36:50;7.10;99.90
5675;DHT22;2860;54.284;10.158;2023-02-23T05:39:15;7.10;99.90
5675;DHT22;2860;54.284;10.158;2023-02-23T05:41:40;7.10;99.90
5675;DHT22;2860;54.284;10.158;2023-02-23T05:44:06;7.10;99.90
5675;DHT22;2860;54.284;10.158;2023-02-23T05:46:32;7.10;99.90
5675;DHT22;2860;54.284;10.158;2023-02-23T05:48:59;7.10;99.90
5675;DHT22;2860;54.284;10.158;2023-02-23T05:51:29;7.10;99.90
5675;DHT22;2860;54.284;10.158;2023-02-23T05:53:56;7.10;99.90
5675;DHT22;2860;54.284;10.158;2023-02-23T05:56:21;7.10;99.90
5675;DHT22;2860;54.284;10.158;2023-02-23T05:58:52;7.10;99.90
5675;DHT22;2860;54.284;10.158;2023-02-23T06:01:20;7.20;99.90
5675;DHT22;2860;54.284;10.158;2023-02-23T06:03:46;7.10;99.90
5675;DHT22;2860;54.284;10.158;2023-02-23T06:06:12;7.10;99.90
5675;DHT22;2860;54.284;10.158;2023-02-23T06:08:38;7.20;99.90
5675;DHT22;2860;54.284;10.158;2023-02-23T06:11:03;7.20;99.90
5675;DHT22;2860;54.284;10.158;2023-02-23T06:13:30;7.20;99.90
5675;DHT22;2860;54.284;10.158;2023-02-23T06:15:57;7.20;99.90
5675;DHT22;2860;54.284;10.158;2023-02-23T06:18:23;7.20;99.90
5675;DHT22;2860;54.284;10.158;2023-02-23T06:20:49;7.20;99.90
5675;DHT22;2860;54.284;10.158;2023-02-23T06:23:15;7.20;99.90
5675;DHT22;2860;54.284;10.158;2023-02-23T06:25:41;7.20;99.90
5675;DHT22;2860;54.284;10.158;2023-02-23T06:28:07;7.20;99.90
5675;DHT22;2860;54.284;10.158;2023-02-23T06:30:33;7.20;99.90
5675;DHT22;2860;54.284;10.158;2023-02-23T06:32:59;7.20;99.90
5675;DHT22;2860;54.284;10.158;2023-02-23T06:35:24;7.20;99.90
5675;DHT22;2860;54.284;10.158;2023-02-23T06:37:51;7.20;99.90
5675;DHT22;2860;54.284;10.158;2023-02-23T06:40:17;7.20;99.90
5675;DHT22;2860;54.284;10.158;2023-02-23T06:42:42;7.20;99.90
5675;DHT22;2860;54.284;10.158;2023-02-23T06:45:08;7.20;99.90
5675;DHT22;2860;54.284;10.158;2023-02-23T06:47:34;7.20;99.90
5675;DHT22;2860;54.284;10.158;2023-02-23T06:49:59;7.20;99.90
5675;DHT22;2860;54.284;10.158;2023-02-23T06:52:26;7.20;99.90
5675;DHT22;2860;54.284;10.158;2023-02-23T06:54:51;7.20;99.90
5675;DHT22;2860;54.284;10.158;2023-02-23T06:57:17;7.20;99.90
5675;DHT22;2860;54.284;10.158;2023-02-23T06:59:43;7.20;99.90
5675;DHT22;2860;54.284;10.158;2023-02-23T07:02:12;7.20;99.90
5675;DHT22;2860;54.284;10.158;2023-02-23T07:04:38;7.20;99.90
5675;DHT22;2860;54.284;10.158;2023-02-23T07:07:04;7.20;99.90
5675;DHT22;2860;54.284;10.158;2023-02-23T07:09:29;7.20;99.90
5675;DHT22;2860;54.284;10.158;2023-02-23T07:11:55;7.20;99.90
5675;DHT22;2860;54.284;10.158;2023-02-23T07:14:20;7.20;99.90
5675;DHT22;2860;54.284;10.158;2023-02-23T07:16:46;7.20;99.90
5675;DHT22;2860;54.284;10.158;2023-02-23T07:19:11;7.20;99.90
5675;DHT22;2860;54.284;10.158;2023-02-23T07:21:37;7.20;99.90
5675;DHT22;2860;54.284;10.158;2023-02-23T07:24:03;7.20;99.90
5675;DHT22;2860;54.284;10.158;2023-02-23T07:26:31;7.20;99.90
5675;DHT22;2860;54.284;10.158;2023-02-23T07:28:58;7.20;99.90
5675;DHT22;2860;54.284;10.158;2023-02-23T07:31:23;7.20;99.90
5675;DHT22;2860;54.284;10.158;2023-02-23T07:33:51;7.30;99.90
5675;DHT22;2860;54.284;10.158;2023-02-23T07:36:17;7.30;99.90
5675;DHT22;2860;54.284;10.158;2023-02-23T07:38:42;7.30;99.90
5675;DHT22;2860;54.284;10.158;2023-02-23T07:41:08;7.30;99.90
5675;DHT22;2860;54.284;10.158;2023-02-23T07:43:34;7.30;99.90
5675;DHT22;2860;54.284;10.158;2023-02-23T07:46:00;7.30;99.90
5675;DHT22;2860;54.284;10.158;2023-02-23T07:48:26;7.40;99.90
5675;DHT22;2860;54.284;10.158;2023-02-23T07:50:52;7.30;99.90
5675;DHT22;2860;54.284;10.158;2023-02-23T07:53:18;7.30;99.90
5675;DHT22;2860;54.284;10.158;2023-02-23T07:55:43;7.40;99.90
5675;DHT22;2860;54.284;10.158;2023-02-23T07:58:09;7.40;99.90
5675;DHT22;2860;54.284;10.158;2023-02-23T08:00:37;7.30;99.90
5675;DHT22;2860;54.284;10.158;2023-02-23T08:03:04;7.30;99.90
5675;DHT22;2860;54.284;10.158;2023-02-23T08:05:30;7.30;99.90
5675;DHT22;2860;54.284;10.158;2023-02-23T08:07:57;7.30;99.90
5675;DHT22;2860;54.284;10.158;2023-02-23T08:10:23;7.40;99.90
5675;DHT22;2860;54.284;10.158;2023-02-23T08:12:48;7.40;99.90
5675;DHT22;2860;54.284;10.158;2023-02-23T08:15:14;7.40;99.90
5675;DHT22;2860;54.284;10.158;2023-02-23T08:17:40;7.40;99.90
5675;DHT22;2860;54.284;10.158;2023-02-23T08:20:06;7.40;99.90
5675;DHT22;2860;54.284;10.158;2023-02-23T08:22:32;7.40;99.90
5675;DHT22;2860;54.284;10.158;2023-02-23T08:24:58;7.40;99.90
5675;DHT22;2860;54.284;10.158;2023-02-23T08:27:24;7.40;99.90
5675;DHT22;2860;54.284;10.158;2023-02-23T08:29:50;7.30;99.90
5675;DHT22;2860;54.284;10.158;2023-02-23T08:32:19;7.30;99.90
5675;DHT22;2860;54.284;10.158;2023-02-23T08:34:45;7.30;99.90
5675;DHT22;2860;54.284;10.158;2023-02-23T08:37:10;7.30;99.90
5675;DHT22;2860;54.284;10.158;2023-02-23T08:39:36;7.30;99.90
5675;DHT22;2860;54.284;10.158;2023-02-23T08:42:03;7.20;99.90
5675;DHT22;2860;54.284;10.158;2023-02-23T08:44:29;7.20;99.90
5675;DHT22;2860;54.284;10.158;2023-02-23T08:46:54;7.20;99.90
5675;DHT22;2860;54.284;10.158;2023-02-23T08:49:23;7.20;99.90
5675;DHT22;2860;54.284;10.158;2023-02-23T08:51:48;7.10;99.90
5675;DHT22;2860;54.284;10.158;2023-02-23T08:54:14;7.20;99.90
5675;DHT22;2860;54.284;10.158;2023-02-23T08:56:41;7.10;99.90
5675;DHT22;2860;54.284;10.158;2023-02-23T08:59:07;7.20;99.90
5675;DHT22;2860;54.284;10.158;2023-02-23T09:01:33;7.20;99.90
5675;DHT22;2860;54.284;10.158;2023-02-23T09:03:58;7.20;99.90
5675;DHT22;2860;54.284;10.158;2023-02-23T09:06:25;7.10;99.90
5675;DHT22;2860;54.284;10.158;2023-02-23T09:08:52;7.10;99.90
5675;DHT22;2860;54.284;10.158;2023-02-23T09:11:18;7.10;99.90
5675;DHT22;2860;54.284;10.158;2023-02-23T09:13:44;7.00;99.90
5675;DHT22;2860;54.284;10.158;2023-02-23T09:16:09;7.00;99.90
5675;DHT22;2860;54.284;10.158;2023-02-23T09:18:35;7.00;99.90
5675;DHT22;2860;54.284;10.158;2023-02-23T09:21:05;7.00;99.90
5675;DHT22;2860;54.284;10.158;2023-02-23T09:23:33;7.00;99.90
5675;DHT22;2860;54.284;10.158;2023-02-23T09:26:09;7.10;99.90
5675;DHT22;2860;54.284;10.158;2023-02-23T09:28:36;7.10;99.90
5675;DHT22;2860;54.284;10.158;2023-02-23T09:31:14;7.10;99.90
5675;DHT22;2860;54.284;10.158;2023-02-23T09:33:40;7.20;99.90
5675;DHT22;2860;54.284;10.158;2023-02-23T09:36:18;7.10;99.90
5675;DHT22;2860;54.284;10.158;2023-02-23T09:38:45;7.10;99.90
5675;DHT22;2860;54.284;10.158;2023-02-23T09:41:39;7.20;99.90
5675;DHT22;2860;54.284;10.158;2023-02-23T09:49:37;7.00;99.90
5675;DHT22;2860;54.284;10.158;2023-02-23T09:52:04;7.00;99.90
5675;DHT22;2860;54.284;10.158;2023-02-23T09:54:34;7.10;99.90
5675;DHT22;2860;54.284;10.158;2023-02-23T09:57:03;7.10;99.90
5675;DHT22;2860;54.284;10.158;2023-02-23T09:59:29;7.10;99.90
5675;DHT22;2860;54.284;10.158;2023-02-23T10:02:30;7.10;99.90
5675;DHT22;2860;54.284;10.158;2023-02-23T10:05:02;7.00;99.90
5675;DHT22;2860;54.284;10.158;2023-02-23T10:10:43;7.10;99.90
5675;DHT22;2860;54.284;10.158;2023-02-23T10:16:23;7.20;99.90
5675;DHT22;2860;54.284;10.158;2023-02-23T10:19:17;7.30;99.90
5675;DHT22;2860;54.284;10.158;2023-02-23T10:21:53;7.30;99.90
5675;DHT22;2860;54.284;10.158;2023-02-23T10:24:33;7.40;99.90
5675;DHT22;2860;54.284;10.158;2023-02-23T10:27:09;7.50;99.90
5675;DHT22;2860;54.284;10.158;2023-02-23T10:29:46;7.60;99.90
5675;DHT22;2860;54.284;10.158;2023-02-23T10:32:21;7.70;99.90
5675;DHT22;2860;54.284;10.158;2023-02-23T10:34:52;7.80;99.90
5675;DHT22;2860;54.284;10.158;2023-02-23T10:37:19;7.90;99.90
5675;DHT22;2860;54.284;10.158;2023-02-23T10:39:44;7.90;99.90
5675;DHT22;2860;54.284;10.158;2023-02-23T10:42:17;8.00;99.90
5675;DHT22;2860;54.284;10.158;2023-02-23T10:44:45;8.10;99.90
5675;DHT22;2860;54.284;10.158;2023-02-23T10:47:18;8.10;99.90
5675;DHT22;2860;54.284;10.158;2023-02-23T10:49:47;8.10;99.90
5675;DHT22;2860;54.284;10.158;2023-02-23T10:52:17;8.10;99.90
5675;DHT22;2860;54.284;10.158;2023-02-23T10:54:49;7.90;99.90
5675;DHT22;2860;54.284;10.158;2023-02-23T10:57:26;7.90;99.90
5675;DHT22;2860;54.284;10.158;2023-02-23T11:02:28;7.90;99.90
5675;DHT22;2860;54.284;10.158;2023-02-23T11:04:56;8.00;99.90
5675;DHT22;2860;54.284;10.158;2023-02-23T11:07:32;8.00;99.90
5675;DHT22;2860;54.284;10.158;2023-02-23T11:10:11;8.00;99.90
5675;DHT22;2860;54.284;10.158;2023-02-23T11:12:43;8.10;99.90
5675;DHT22;2860;54.284;10.158;2023-02-23T11:17:57;8.30;99.90
5675;DHT22;2860;54.284;10.158;2023-02-23T11:20:33;8.30;99.90
5675;DHT22;2860;54.284;10.158;2023-02-23T11:23:07;8.30;99.90
5675;DHT22;2860;54.284;10.158;2023-02-23T11:25:33;8.30;99.90
5675;DHT22;2860;54.284;10.158;2023-02-23T11:27:59;8.30;99.90
5675;DHT22;2860;54.284;10.158;2023-02-23T11:30:32;8.20;99.90
5675;DHT22;2860;54.284;10.158;2023-02-23T11:33:02;8.20;99.90
5675;DHT22;2860;54.284;10.158;2023-02-23T11:35:35;8.10;99.90
5675;DHT22;2860;54.284;10.158;2023-02-23T11:38:23;8.00;99.90
5675;DHT22;2860;54.284;10.158;2023-02-23T11:41:24;8.10;99.90
5675;DHT22;2860;54.284;10.158;2023-02-23T11:43:55;8.00;99.90
5675;DHT22;2860;54.284;10.158;2023-02-23T11:46:21;8.00;99.90
5675;DHT22;2860;54.284;10.158;2023-02-23T11:49:02;8.00;99.90
5675;DHT22;2860;54.284;10.158;2023-02-23T11:51:34;8.00;99.90
5675;DHT22;2860;54.284;10.158;2023-02-23T11:54:01;8.00;99.90
5675;DHT22;2860;54.284;10.158;2023-02-23T11:56:29;8.00;99.90
5675;DHT22;2860;54.284;10.158;2023-02-23T11:59:05;8.00;99.90
5675;DHT22;2860;54.284;10.158;2023-02-23T12:01:48;8.10;99.90
5675;DHT22;2860;54.284;10.158;2023-02-23T12:04:35;8.10;99.90
5675;DHT22;2860;54.284;10.158;2023-02-23T12:09:48;8.10;99.90
5675;DHT22;2860;54.284;10.158;2023-02-23T12:12:19;8.20;99.90
5675;DHT22;2860;54.284;10.158;2023-02-23T12:14:50;8.20;99.90
5675;DHT22;2860;54.284;10.158;2023-02-23T12:17:25;8.20;99.90
5675;DHT22;2860;54.284;10.158;2023-02-23T12:19:58;8.20;99.90
5675;DHT22;2860;54.284;10.158;2023-02-23T12:22:42;8.30;99.90
5675;DHT22;2860;54.284;10.158;2023-02-23T12:25:35;8.40;99.90
5675;DHT22;2860;54.284;10.158;2023-02-23T12:28:12;8.50;99.90
5675;DHT22;2860;54.284;10.158;2023-02-23T12:33:54;8.70;99.90
5675;DHT22;2860;54.284;10.158;2023-02-23T12:36:44;8.80;99.90
5675;DHT22;2860;54.284;10.158;2023-02-23T12:39:34;8.80;99.90
5675;DHT22;2860;54.284;10.158;2023-02-23T12:42:19;8.60;99.90
5675;DHT22;2860;54.284;10.158;2023-02-23T12:45:00;8.60;99.90
5675;DHT22;2860;54.284;10.158;2023-02-23T12:47:41;8.60;99.90
5675;DHT22;2860;54.284;10.158;2023-02-23T12:50:12;8.70;99.90
5675;DHT22;2860;54.284;10.158;2023-02-23T12:53:00;8.70;99.90
5675;DHT22;2860;54.284;10.158;2023-02-23T13:01:03;8.60;99.90
5675;DHT22;2860;54.284;10.158;2023-02-23T13:03:48;8.60;99.90
5675;DHT22;2860;54.284;10.158;2023-02-23T13:09:26;8.80;99.90
5675;DHT22;2860;54.284;10.158;2023-02-23T13:11:59;8.90;99.90
5675;DHT22;2860;54.284;10.158;2023-02-23T13:14:41;8.90;99.90
5675;DHT22;2860;54.284;10.158;2023-02-23T13:17:36;8.90;99.90
5675;DHT22;2860;54.284;10.158;2023-02-23T13:20:13;8.90;99.90
5675;DHT22;2860;54.284;10.158;2023-02-23T13:25:49;8.80;99.90
5675;DHT22;2860;54.284;10.158;2023-02-23T13:28:20;8.80;99.90
5675;DHT22;2860;54.284;10.158;2023-02-23T13:30:52;8.80;99.90
5675;DHT22;2860;54.284;10.158;2023-02-23T13:33:26;8.70;99.90
5675;DHT22;2860;54.284;10.158;2023-02-23T13:35:54;8.70;99.90
5675;DHT22;2860;54.284;10.158;2023-02-23T13:44:34;8.80;99.90
5675;DHT22;2860;54.284;10.158;2023-02-23T13:49:45;8.70;99.90
5675;DHT22;2860;54.284;10.158;2023-02-23T13:52:31;8.60;99.90
5675;DHT22;2860;54.284;10.158;2023-02-23T13:55:02;8.60;99.90
5675;DHT22;2860;54.284;10.158;2023-02-23T13:57:30;8.50;99.90
5675;DHT22;2860;54.284;10.158;2023-02-23T13:59:56;8.40;99.90
5675;DHT22;2860;54.284;10.158;2023-02-23T14:02:33;8.40;99.90
5675;DHT22;2860;54.284;10.158;2023-02-23T14:05:18;8.40;99.90
5675;DHT22;2860;54.284;10.158;2023-02-23T14:07:47;8.30;99.90
5675;DHT22;2860;54.284;10.158;2023-02-23T14:10:40;8.30;99.90
5675;DHT22;2860;54.284;10.158;2023-02-23T14:18:27;8.20;99.90
5675;DHT22;2860;54.284;10.158;2023-02-23T14:32:43;8.30;99.90
5675;DHT22;2860;54.284;10.158;2023-02-23T14:40:21;8.40;99.90
5675;DHT22;2860;54.284;10.158;2023-02-23T14:42:52;8.40;99.90
5675;DHT22;2860;54.284;10.158;2023-02-23T14:45:24;8.30;99.90
5675;DHT22;2860;54.284;10.158;2023-02-23T14:47:54;8.30;99.90
5675;DHT22;2860;54.284;10.158;2023-02-23T14:50:32;8.30;99.90
5675;DHT22;2860;54.284;10.158;2023-02-23T14:52:58;8.30;99.90
5675;DHT22;2860;54.284;10.158;2023-02-23T14:55:30;8.30;99.90
5675;DHT22;2860;54.284;10.158;2023-02-23T14:57:57;8.20;99.90
5675;DHT22;2860;54.284;10.158;2023-02-23T15:00:26;8.30;99.90
5675;DHT22;2860;54.284;10.158;2023-02-23T15:03:00;8.20;99.90
5675;DHT22;2860;54.284;10.158;2023-02-23T15:05:36;8.20;99.90
5675;DHT22;2860;54.284;10.158;2023-02-23T15:08:07;8.20;99.90
5675;DHT22;2860;54.284;10.158;2023-02-23T15:10:40;8.10;99.90
5675;DHT22;2860;54.284;10.158;2023-02-23T15:13:31;8.00;99.90
5675;DHT22;2860;54.284;10.158;2023-02-23T15:16:00;8.00;99.90
5675;DHT22;2860;54.284;10.158;2023-02-23T15:21:51;8.00;99.90
5675;DHT22;2860;54.284;10.158;2023-02-23T15:24:22;8.00;99.90
5675;DHT22;2860;54.284;10.158;2023-02-23T15:26:50;8.00;99.90
5675;DHT22;2860;54.284;10.158;2023-02-23T15:29:18;7.90;99.90
5675;DHT22;2860;54.284;10.158;2023-02-23T15:31:46;7.80;99.90
5675;DHT22;2860;54.284;10.158;2023-02-23T15:34:27;7.70;99.90
5675;DHT22;2860;54.284;10.158;2023-02-23T15:37:02;7.70;99.90
5675;DHT22;2860;54.284;10.158;2023-02-23T15:39:36;7.60;99.90
5675;DHT22;2860;54.284;10.158;2023-02-23T15:42:06;7.60;99.90
5675;DHT22;2860;54.284;10.158;2023-02-23T15:44:37;7.60;99.90
5675;DHT22;2860;54.284;10.158;2023-02-23T15:47:05;7.50;99.90
5675;DHT22;2860;54.284;10.158;2023-02-23T15:49:36;7.50;99.90
5675;DHT22;2860;54.284;10.158;2023-02-23T15:52:06;7.40;99.90
5675;DHT22;2860;54.284;10.158;2023-02-23T15:57:19;7.30;99.90
5675;DHT22;2860;54.284;10.158;2023-02-23T15:59:46;7.30;99.90
5675;DHT22;2860;54.284;10.158;2023-02-23T16:02:15;7.30;99.90
5675;DHT22;2860;54.284;10.158;2023-02-23T16:04:44;7.30;99.90
5675;DHT22;2860;54.284;10.158;2023-02-23T16:07:21;7.30;99.90
5675;DHT22;2860;54.284;10.158;2023-02-23T16:09:53;7.20;99.90
5675;DHT22;2860;54.284;10.158;2023-02-23T16:12:22;7.10;99.90
5675;DHT22;2860;54.284;10.158;2023-02-23T16:15:21;7.10;99.90
5675;DHT22;2860;54.284;10.158;2023-02-23T16:18:00;7.00;99.90
5675;DHT22;2860;54.284;10.158;2023-02-23T16:22:55;6.90;99.90
5675;DHT22;2860;54.284;10.158;2023-02-23T16:25:25;6.80;99.90
5675;DHT22;2860;54.284;10.158;2023-02-23T16:27:59;6.80;99.90
5675;DHT22;2860;54.284;10.158;2023-02-23T16:30:32;6.70;99.90
5675;DHT22;2860;54.284;10.158;2023-02-23T16:33:23;6.60;99.90
5675;DHT22;2860;54.284;10.158;2023-02-23T16:38:37;6.40;99.90
5675;DHT22;2860;54.284;10.158;2023-02-23T16:41:19;6.40;99.90
5675;DHT22;2860;54.284;10.158;2023-02-23T16:43:48;6.30;99.90
5675;DHT22;2860;54.284;10.158;2023-02-23T16:46:15;6.10;99.90
5675;DHT22;2860;54.284;10.158;2023-02-23T16:48:41;6.00;99.90
5675;DHT22;2860;54.284;10.158;2023-02-23T16:51:27;5.90;99.90
5675;DHT22;2860;54.284;10.158;2023-02-23T16:53:52;5.70;99.90
5675;DHT22;2860;54.284;10.158;2023-02-23T16:56:19;5.60;99.90
5675;DHT22;2860;54.284;10.158;2023-02-23T16:58:48;5.50;99.90
5675;DHT22;2860;54.284;10.158;2023-02-23T17:01:16;5.40;99.90
5675;DHT22;2860;54.284;10.158;2023-02-23T17:03:42;5.40;99.90
5675;DHT22;2860;54.284;10.158;2023-02-23T17:06:10;5.30;99.90
5675;DHT22;2860;54.284;10.158;2023-02-23T17:08:36;5.20;99.90
5675;DHT22;2860;54.284;10.158;2023-02-23T17:11:03;5.10;99.90
5675;DHT22;2860;54.284;10.158;2023-02-23T17:13:30;5.00;99.90
5675;DHT22;2860;54.284;10.158;2023-02-23T17:16:01;4.90;99.90
5675;DHT22;2860;54.284;10.158;2023-02-23T17:18:32;4.80;99.90
5675;DHT22;2860;54.284;10.158;2023-02-23T17:21:02;4.80;99.90
5675;DHT22;2860;54.284;10.158;2023-02-23T17:23:30;4.70;99.90
5675;DHT22;2860;54.284;10.158;2023-02-23T17:26:06;4.70;99.90
5675;DHT22;2860;54.284;10.158;2023-02-23T17:28:32;4.60;99.90
5675;DHT22;2860;54.284;10.158;2023-02-23T17:31:00;4.50;99.90
5675;DHT22;2860;54.284;10.158;2023-02-23T17:33:26;4.40;99.90
5675;DHT22;2860;54.284;10.158;2023-02-23T17:35:52;4.40;99.90
5675;DHT22;2860;54.284;10.158;2023-02-23T17:38:18;4.40;99.90
5675;DHT22;2860;54.284;10.158;2023-02-23T17:40:46;4.30;99.90
5675;DHT22;2860;54.284;10.158;2023-02-23T17:43:11;4.20;99.90
5675;DHT22;2860;54.284;10.158;2023-02-23T17:45:37;4.30;99.90
5675;DHT22;2860;54.284;10.158;2023-02-23T17:48:03;4.20;99.90
5675;DHT22;2860;54.284;10.158;2023-02-23T17:50:28;4.10;99.90
5675;DHT22;2860;54.284;10.158;2023-02-23T17:52:54;4.10;99.90
5675;DHT22;2860;54.284;10.158;2023-02-23T17:55:20;4.00;99.90
5675;DHT22;2860;54.284;10.158;2023-02-23T17:57:46;3.90;99.90
5675;DHT22;2860;54.284;10.158;2023-02-23T18:00:14;3.90;99.90
5675;DHT22;2860;54.284;10.158;2023-02-23T18:02:41;3.80;99.90
5675;DHT22;2860;54.284;10.158;2023-02-23T18:05:08;3.70;99.90
5675;DHT22;2860;54.284;10.158;2023-02-23T18:07:35;3.70;99.90
5675;DHT22;2860;54.284;10.158;2023-02-23T18:10:01;3.60;99.90
5675;DHT22;2860;54.284;10.158;2023-02-23T18:12:26;3.50;99.90
5675;DHT22;2860;54.284;10.158;2023-02-23T18:14:52;3.40;99.90